Time;durP1;ratioP1;P1;durP2;ratioP2;P2;SDS_P1;SDS_P2;PMS_P1;PMS_P2;Temp;Humidity;BMP_temperature;BMP_pressure;BME280_temperature;BME280_humidity;BME280_pressure;Samples;Min_cycle;Max_cycle;Signal;HPM_P1;HPM_P2
2021/07/29 00:00:43;;;;;;;2.25;1.50;;;24.60;55.20;;;;;;5049289;28;20505;-53
2021/07/29 00:03:08;;;;;;;3.55;1.80;;;24.60;55.20;;;;;;5050334;28;20036;-57
2021/07/29 00:05:36;;;;;;;2.67;1.65;;;24.60;55.20;;;;;;5047318;28;20062;-55
2021/07/29 00:08:03;;;;;;;4.10;1.85;;;24.60;55.20;;;;;;5049563;28;20400;-54
2021/07/29 00:10:30;;;;;;;2.05;1.55;;;24.60;55.10;;;;;;5049312;28;20078;-58
2021/07/29 00:12:56;;;;;;;2.42;1.80;;;24.60;55.00;;;;;;5048889;28;20035;-53
2021/07/29 00:15:22;;;;;;;2.22;1.80;;;24.60;55.10;;;;;;5050654;28;20036;-52
2021/07/29 00:20:24;;;;;;;2.10;1.50;;;24.60;55.10;;;;;;5053747;28;20144;-51
2021/07/29 00:22:53;;;;;;;2.22;1.42;;;24.50;55.10;;;;;;5050716;28;20033;-49
2021/07/29 00:25:22;;;;;;;2.55;1.70;;;24.60;55.10;;;;;;5053148;28;20028;-49
2021/07/29 00:27:49;;;;;;;2.67;1.50;;;24.60;55.10;;;;;;5051764;28;20033;-52
2021/07/29 00:30:17;;;;;;;2.42;1.73;;;24.60;55.00;;;;;;5051503;28;20090;-56
2021/07/29 00:32:43;;;;;;;2.10;1.60;;;24.60;55.00;;;;;;5051884;28;20037;-48
2021/07/29 00:35:14;;;;;;;2.17;1.70;;;24.60;54.80;;;;;;5054277;28;20025;-48
2021/07/29 00:37:44;;;;;;;2.00;1.53;;;24.70;54.70;;;;;;5052798;28;20429;-48
2021/07/29 00:40:11;;;;;;;1.83;1.48;;;24.70;54.80;;;;;;5052594;28;20025;-51
2021/07/29 00:42:37;;;;;;;1.85;1.50;;;24.80;54.60;;;;;;5051375;28;20481;-51
2021/07/29 00:45:03;;;;;;;2.03;1.50;;;24.70;54.60;;;;;;5054045;28;20033;-48
2021/07/29 00:47:29;;;;;;;1.60;1.50;;;24.80;54.60;;;;;;5052384;28;20028;-56
2021/07/29 00:49:55;;;;;;;1.90;1.60;;;24.80;54.60;;;;;;5052238;28;20037;-49
2021/07/29 00:52:22;;;;;;;2.60;1.50;;;24.80;54.30;;;;;;5052478;28;20037;-48
2021/07/29 00:54:52;;;;;;;1.92;1.75;;;24.80;54.30;;;;;;5051654;28;20039;-53
2021/07/29 00:57:21;;;;;;;2.35;1.80;;;24.80;54.30;;;;;;5051602;28;20075;-48
2021/07/29 00:59:48;;;;;;;2.05;1.60;;;24.70;54.20;;;;;;5052471;28;20048;-52
2021/07/29 01:02:14;;;;;;;2.75;1.73;;;24.70;54.10;;;;;;5053641;28;20060;-49
2021/07/29 01:04:40;;;;;;;1.83;1.27;;;24.70;54.20;;;;;;5064343;28;20547;-51
2021/07/29 01:07:06;;;;;;;2.95;1.80;;;24.70;54.30;;;;;;5057812;28;20033;-49
2021/07/29 01:09:32;;;;;;;2.28;1.92;;;24.70;54.30;;;;;;5052103;28;20081;-50
2021/07/29 01:11:57;;;;;;;2.03;1.75;;;24.70;54.30;;;;;;5052959;28;20501;-54
2021/07/29 01:14:23;;;;;;;2.33;1.40;;;24.60;54.30;;;;;;5054265;28;20074;-51
2021/07/29 01:16:49;;;;;;;2.05;1.50;;;24.60;54.20;;;;;;5066977;28;20622;-49
2021/07/29 01:19:14;;;;;;;3.95;1.60;;;24.60;54.30;;;;;;5053529;28;20029;-51
2021/07/29 01:21:40;;;;;;;2.70;1.70;;;24.60;54.30;;;;;;5052470;28;20466;-50
2021/07/29 01:24:06;;;;;;;2.20;1.65;;;24.60;54.30;;;;;;5053549;28;20029;-52
2021/07/29 01:26:32;;;;;;;2.03;1.52;;;24.60;54.30;;;;;;5051682;28;20021;-53
2021/07/29 01:29:00;;;;;;;2.03;1.70;;;24.60;54.40;;;;;;5053068;28;20331;-50
2021/07/29 01:31:26;;;;;;;3.00;2.05;;;24.60;54.50;;;;;;5053586;28;20383;-53
2021/07/29 01:33:53;;;;;;;1.73;1.52;;;24.60;54.50;;;;;;5061539;28;20047;-51
2021/07/29 01:36:19;;;;;;;2.42;1.80;;;24.60;54.60;;;;;;5073280;28;20521;-54
2021/07/29 01:38:44;;;;;;;1.95;1.70;;;24.60;54.50;;;;;;5058353;28;20110;-50
2021/07/29 01:41:10;;;;;;;3.13;1.83;;;24.60;55.30;;;;;;5065110;28;20461;-52
2021/07/29 01:43:36;;;;;;;1.73;1.60;;;24.60;54.80;;;;;;5070902;28;20032;-52
2021/07/29 01:46:01;;;;;;;2.35;1.50;;;24.60;54.80;;;;;;5072068;28;20393;-53
2021/07/29 01:48:28;;;;;;;1.95;1.50;;;24.70;54.70;;;;;;5062202;28;20033;-54
2021/07/29 01:50:54;;;;;;;1.75;1.63;;;24.60;54.70;;;;;;5052409;28;20111;-54
2021/07/29 01:53:20;;;;;;;3.45;1.75;;;24.60;54.80;;;;;;5052836;28;20090;-51
2021/07/29 01:55:47;;;;;;;3.80;1.92;;;24.60;55.40;;;;;;5051811;28;20029;-56
2021/07/29 01:58:14;;;;;;;2.65;1.70;;;24.50;54.90;;;;;;5052387;28;20032;-54
2021/07/29 02:00:42;;;;;;;2.60;2.10;;;24.60;55.00;;;;;;5050890;28;20402;-55
2021/07/29 02:03:08;;;;;;;4.00;1.90;;;24.60;55.00;;;;;;5055539;28;20125;-56
2021/07/29 02:05:34;;;;;;;2.38;1.80;;;24.60;54.90;;;;;;5068110;28;20108;-56
2021/07/29 02:08:00;;;;;;;3.17;1.85;;;24.60;55.00;;;;;;5052627;28;20183;-55
2021/07/29 02:10:26;;;;;;;1.60;1.50;;;24.60;54.90;;;;;;5055138;28;20029;-51
2021/07/29 02:12:53;;;;;;;2.72;1.83;;;24.70;54.90;;;;;;5070889;28;20032;-53
2021/07/29 02:15:19;;;;;;;2.38;1.80;;;24.70;54.90;;;;;;5072533;28;20086;-51
2021/07/29 02:17:44;;;;;;;2.58;1.60;;;24.70;54.90;;;;;;5054245;28;20033;-53
2021/07/29 02:20:11;;;;;;;1.98;1.65;;;24.70;54.90;;;;;;5052709;28;20068;-54
2021/07/29 02:22:37;;;;;;;2.47;1.58;;;24.70;54.90;;;;;;5051458;28;20537;-55
2021/07/29 02:25:04;;;;;;;2.90;2.10;;;24.70;55.00;;;;;;5052489;28;20064;-53
2021/07/29 02:27:30;;;;;;;2.83;1.90;;;24.60;55.00;;;;;;5051853;28;20029;-60
2021/07/29 02:29:57;;;;;;;3.15;2.05;;;24.60;55.00;;;;;;5051858;28;20051;-54
2021/07/29 02:32:23;;;;;;;2.90;1.50;;;24.70;55.00;;;;;;5051998;28;20052;-49
2021/07/29 02:34:49;;;;;;;1.98;1.60;;;24.70;55.00;;;;;;5051454;28;20033;-50
2021/07/29 02:37:14;;;;;;;2.60;2.20;;;24.70;54.90;;;;;;5051880;28;20061;-53
2021/07/29 02:39:41;;;;;;;2.72;1.80;;;24.70;55.00;;;;;;5050730;28;20060;-49
2021/07/29 02:42:09;;;;;;;2.55;1.90;;;24.70;55.00;;;;;;5068821;28;20530;-51
2021/07/29 02:44:35;;;;;;;1.90;1.60;;;24.70;55.10;;;;;;5051187;28;20433;-48
2021/07/29 02:47:01;;;;;;;3.35;2.10;;;24.70;55.10;;;;;;5051506;28;20082;-50
2021/07/29 02:49:27;;;;;;;3.45;1.92;;;24.60;55.10;;;;;;5052207;28;20029;-48
2021/07/29 02:51:53;;;;;;;2.67;1.92;;;24.70;55.10;;;;;;5051460;28;20044;-52
2021/07/29 02:54:18;;;;;;;2.33;1.70;;;24.70;55.00;;;;;;5052216;28;20036;-52
2021/07/29 02:56:44;;;;;;;2.58;1.95;;;24.70;55.00;;;;;;5051315;28;20122;-48
2021/07/29 02:59:10;;;;;;;2.40;2.15;;;24.70;55.00;;;;;;5051643;28;20053;-50
2021/07/29 03:01:36;;;;;;;1.95;1.70;;;24.70;55.00;;;;;;5051128;28;20037;-52
2021/07/29 03:04:01;;;;;;;2.42;1.90;;;24.70;55.00;;;;;;5052005;28;20059;-51
2021/07/29 03:06:27;;;;;;;3.10;2.10;;;24.60;55.00;;;;;;5051852;28;20041;-49
2021/07/29 03:08:53;;;;;;;2.78;2.00;;;24.70;55.10;;;;;;5051126;28;20787;-52
2021/07/29 03:11:19;;;;;;;2.30;2.05;;;24.60;55.00;;;;;;5063891;28;20056;-51
2021/07/29 03:13:45;;;;;;;2.72;2.17;;;24.60;55.10;;;;;;5071224;28;20063;-51
2021/07/29 03:16:11;;;;;;;2.30;1.85;;;24.60;55.10;;;;;;5063460;28;20021;-52
2021/07/29 03:18:36;;;;;;;2.22;1.98;;;24.50;55.20;;;;;;5057340;28;20454;-52
2021/07/29 03:21:02;;;;;;;2.10;1.73;;;24.60;55.20;;;;;;5065174;28;20386;-50
2021/07/29 03:23:27;;;;;;;2.42;2.05;;;24.60;55.10;;;;;;5051799;28;20037;-50
2021/07/29 03:25:54;;;;;;;2.22;1.90;;;24.60;55.10;;;;;;5050316;28;20522;-50
2021/07/29 03:28:20;;;;;;;2.88;2.00;;;24.60;55.10;;;;;;5050777;28;20036;-52
2021/07/29 03:30:46;;;;;;;2.75;1.92;;;24.60;55.10;;;;;;5050704;28;20055;-51
2021/07/29 03:33:12;;;;;;;3.00;2.10;;;24.60;55.00;;;;;;5051404;28;20025;-50
2021/07/29 03:35:39;;;;;;;2.35;2.00;;;24.60;55.10;;;;;;5050824;28;20025;-54
2021/07/29 03:38:06;;;;;;;3.05;1.95;;;24.60;55.10;;;;;;5051354;28;20032;-49
2021/07/29 03:40:33;;;;;;;3.40;1.90;;;24.60;55.00;;;;;;5051440;28;20056;-57
2021/07/29 03:43:02;;;;;;;4.07;2.10;;;24.60;54.90;;;;;;5050916;28;20107;-52
2021/07/29 03:45:28;;;;;;;3.05;2.13;;;24.60;55.00;;;;;;5051716;28;20116;-52
2021/07/29 03:47:54;;;;;;;4.53;2.42;;;24.50;55.00;;;;;;5050238;28;20029;-50
2021/07/29 03:50:20;;;;;;;2.78;2.22;;;24.50;54.90;;;;;;5051685;28;20105;-51
2021/07/29 03:52:46;;;;;;;3.63;2.10;;;24.50;55.00;;;;;;5054747;28;20029;-49
2021/07/29 03:55:11;;;;;;;3.35;2.25;;;24.50;55.00;;;;;;5055273;28;20029;-50
2021/07/29 03:57:37;;;;;;;2.67;2.05;;;24.50;54.90;;;;;;5054437;28;20394;-50
2021/07/29 04:00:04;;;;;;;2.63;1.77;;;24.50;54.80;;;;;;5055322;28;20128;-50
2021/07/29 04:02:30;;;;;;;3.60;2.03;;;24.50;54.90;;;;;;5055113;28;20541;-50
2021/07/29 04:04:56;;;;;;;4.15;2.05;;;24.50;54.80;;;;;;5054848;28;20037;-50
2021/07/29 04:07:22;;;;;;;2.40;2.17;;;24.50;54.90;;;;;;5054502;28;20531;-50
2021/07/29 04:09:47;;;;;;;3.45;1.85;;;24.50;54.80;;;;;;5054380;28;20037;-48
2021/07/29 04:12:13;;;;;;;3.50;2.30;;;24.50;54.90;;;;;;5054959;28;20430;-48
2021/07/29 04:14:40;;;;;;;2.40;1.95;;;24.40;54.60;;;;;;5054168;28;20029;-49
2021/07/29 04:17:06;;;;;;;2.42;1.70;;;24.40;54.70;;;;;;5054543;28;20040;-48
2021/07/29 04:19:33;;;;;;;2.17;1.83;;;24.40;54.70;;;;;;5054834;28;20028;-53
2021/07/29 04:21:59;;;;;;;2.72;2.00;;;24.40;54.60;;;;;;5053930;28;20486;-48
2021/07/29 04:24:28;;;;;;;1.92;1.70;;;24.50;54.60;;;;;;5055050;28;20033;-50
2021/07/29 04:26:55;;;;;;;2.17;1.90;;;24.50;54.50;;;;;;5053741;28;20064;-49
2021/07/29 04:29:22;;;;;;;19.85;2.55;;;24.50;54.50;;;;;;5054443;28;20470;-51
2021/07/29 04:31:47;;;;;;;2.95;1.90;;;24.60;54.40;;;;;;5053854;28;20041;-54
2021/07/29 04:34:13;;;;;;;3.38;1.75;;;24.60;54.40;;;;;;5054570;28;20104;-50
2021/07/29 04:36:42;;;;;;;2.00;1.63;;;24.50;54.40;;;;;;5053526;28;20100;-53
2021/07/29 04:39:08;;;;;;;2.55;2.05;;;24.50;54.40;;;;;;5054286;28;20033;-53
2021/07/29 04:41:39;;;;;;;2.00;1.80;;;24.50;54.40;;;;;;5054322;28;20466;-55
2021/07/29 04:44:07;;;;;;;2.60;2.15;;;24.50;54.40;;;;;;5054490;28;20383;-48
2021/07/29 04:46:37;;;;;;;2.25;2.03;;;24.60;54.40;;;;;;5054348;28;20489;-58
2021/07/29 04:49:04;;;;;;;5.20;2.30;;;24.60;54.30;;;;;;5053759;28;20056;-49
2021/07/29 04:51:30;;;;;;;2.40;1.75;;;24.60;54.30;;;;;;5054451;28;20025;-51
2021/07/29 04:53:55;;;;;;;3.20;2.38;;;24.60;54.20;;;;;;5053651;28;20025;-53
2021/07/29 04:56:21;;;;;;;2.42;2.03;;;24.60;54.30;;;;;;5054022;28;20114;-55
2021/07/29 04:58:49;;;;;;;2.67;1.95;;;24.50;54.30;;;;;;5053142;28;20033;-51
2021/07/29 05:01:16;;;;;;;2.25;1.67;;;24.40;54.30;;;;;;5061566;28;20122;-49
2021/07/29 05:03:42;;;;;;;1.65;1.50;;;24.50;54.50;;;;;;5073180;28;20121;-52
2021/07/29 05:06:07;;;;;;;3.65;1.75;;;24.50;54.50;;;;;;5054930;28;20486;-54
2021/07/29 05:08:33;;;;;;;3.67;1.90;;;24.50;54.30;;;;;;5052741;28;20026;-52
2021/07/29 05:11:02;;;;;;;1.60;1.48;;;24.50;54.30;;;;;;5052395;28;20060;-51
2021/07/29 05:13:27;;;;;;;1.95;1.50;;;24.50;54.30;;;;;;5049979;28;20385;-52
2021/07/29 05:15:53;;;;;;;3.38;2.17;;;24.50;54.20;;;;;;5050358;28;20024;-49
2021/07/29 05:18:18;;;;;;;2.03;1.60;;;24.50;54.20;;;;;;5052669;28;20028;-51
2021/07/29 05:20:44;;;;;;;3.15;1.80;;;24.50;54.20;;;;;;5051952;28;20025;-48
2021/07/29 05:23:10;;;;;;;2.28;1.60;;;24.50;54.30;;;;;;5053464;28;20032;-50
2021/07/29 05:25:36;;;;;;;2.63;1.80;;;24.50;54.30;;;;;;5052333;28;20540;-60
2021/07/29 05:28:01;;;;;;;3.10;2.00;;;24.50;54.40;;;;;;5053095;28;20029;-52
2021/07/29 05:30:27;;;;;;;2.03;1.83;;;24.40;54.40;;;;;;5054215;28;20094;-55
2021/07/29 05:32:52;;;;;;;2.42;1.70;;;24.40;54.50;;;;;;5053049;28;20033;-54
2021/07/29 05:35:18;;;;;;;3.92;2.75;;;24.50;54.50;;;;;;5053139;28;20083;-50
2021/07/29 05:37:44;;;;;;;2.53;1.75;;;24.40;54.50;;;;;;5052634;28;20029;-49
2021/07/29 05:40:10;;;;;;;2.90;1.90;;;24.40;54.50;;;;;;5053558;28;20434;-49
2021/07/29 05:42:35;;;;;;;2.72;1.70;;;24.40;54.50;;;;;;5053336;28;20029;-56
2021/07/29 05:45:02;;;;;;;4.53;2.00;;;24.40;54.50;;;;;;5052709;28;20116;-49
2021/07/29 05:47:28;;;;;;;3.45;1.70;;;24.50;54.50;;;;;;5051891;28;20424;-53
2021/07/29 05:49:53;;;;;;;1.92;1.40;;;24.40;54.50;;;;;;5047967;28;20029;-48
2021/07/29 05:52:19;;;;;;;2.28;1.63;;;24.40;54.80;;;;;;5054723;28;20057;-48
2021/07/29 05:54:45;;;;;;;2.95;2.03;;;24.40;54.80;;;;;;5053962;28;20068;-48
2021/07/29 05:57:10;;;;;;;2.90;1.90;;;24.50;55.10;;;;;;5053116;28;20032;-53
2021/07/29 05:59:36;;;;;;;4.03;2.42;;;24.50;55.00;;;;;;5052388;28;20053;-55
2021/07/29 06:02:02;;;;;;;6.25;1.90;;;24.50;55.10;;;;;;5053965;28;20037;-49
2021/07/29 06:04:27;;;;;;;6.75;1.92;;;24.50;55.60;;;;;;5053219;28;20032;-56
2021/07/29 06:06:53;;;;;;;2.58;1.70;;;24.60;55.20;;;;;;5051941;28;20390;-49
2021/07/29 06:09:19;;;;;;;4.03;1.90;;;24.50;55.70;;;;;;5052736;28;20124;-54
2021/07/29 06:11:44;;;;;;;3.72;1.80;;;24.50;55.50;;;;;;5051817;28;20033;-53
2021/07/29 06:14:10;;;;;;;4.55;2.05;;;24.60;55.50;;;;;;5049046;28;20108;-52
2021/07/29 06:16:37;;;;;;;2.45;1.85;;;24.50;55.40;;;;;;5052538;28;20506;-56
2021/07/29 06:19:09;;;;;;;4.97;1.80;;;24.60;55.40;;;;;;5052826;28;20083;-51
2021/07/29 06:21:36;;;;;;;4.95;1.88;;;24.60;55.40;;;;;;5071034;28;20029;-59
2021/07/29 06:24:02;;;;;;;2.38;1.50;;;24.60;55.60;;;;;;5050395;28;20119;-49
2021/07/29 06:26:28;;;;;;;4.47;1.80;;;24.60;55.60;;;;;;5046697;28;20025;-50
2021/07/29 06:28:54;;;;;;;2.30;1.67;;;24.50;55.50;;;;;;5051653;28;20029;-49
2021/07/29 06:31:20;;;;;;;2.47;1.75;;;24.50;55.40;;;;;;5052205;28;20033;-50
2021/07/29 06:33:46;;;;;;;3.47;1.85;;;24.50;55.60;;;;;;5051828;28;20425;-49
2021/07/29 06:36:11;;;;;;;2.38;1.40;;;24.50;55.60;;;;;;5052486;28;20107;-50
2021/07/29 06:38:38;;;;;;;2.80;1.83;;;24.50;55.70;;;;;;5051309;28;20474;-58
2021/07/29 06:41:05;;;;;;;2.72;1.88;;;24.50;55.70;;;;;;5051906;28;20090;-51
2021/07/29 06:43:30;;;;;;;1.60;1.50;;;24.40;55.40;;;;;;5052398;28;20036;-50
2021/07/29 06:46:01;;;;;;;3.20;1.75;;;24.40;55.50;;;;;;5050426;28;20029;-52
2021/07/29 06:48:26;;;;;;;3.92;1.80;;;24.40;55.70;;;;;;5052027;28;20079;-54
2021/07/29 06:50:53;;;;;;;2.92;1.90;;;24.30;54.90;;;;;;5044045;28;20355;-53
2021/07/29 06:53:18;;;;;;;1.90;1.67;;;23.80;55.90;;;;;;5051154;28;20040;-54
2021/07/29 06:55:44;;;;;;;3.60;1.60;;;23.30;56.70;;;;;;5050109;28;20077;-54
2021/07/29 06:58:10;;;;;;;3.90;2.03;;;23.50;56.80;;;;;;5051855;28;20099;-53
2021/07/29 07:00:36;;;;;;;2.20;1.85;;;23.40;56.90;;;;;;5051149;28;20108;-54
2021/07/29 07:03:01;;;;;;;3.05;1.65;;;23.50;56.60;;;;;;5049420;28;20041;-54
2021/07/29 07:05:27;;;;;;;3.05;1.92;;;23.70;56.50;;;;;;5051237;28;20533;-54
2021/07/29 07:07:53;;;;;;;2.92;1.77;;;23.80;55.90;;;;;;5050400;28;20163;-54
2021/07/29 07:10:19;;;;;;;3.53;2.05;;;23.80;56.00;;;;;;5050946;28;20051;-58
2021/07/29 07:12:45;;;;;;;3.83;2.10;;;23.80;55.60;;;;;;5049510;28;20107;-59
2021/07/29 07:15:11;;;;;;;3.55;1.90;;;23.80;55.60;;;;;;5049901;28;20039;-56
2021/07/29 07:17:37;;;;;;;3.00;1.70;;;23.60;55.80;;;;;;5050840;28;20025;-56
2021/07/29 07:20:03;;;;;;;3.42;1.88;;;23.70;55.90;;;;;;5058046;28;20241;-56
2021/07/29 07:22:28;;;;;;;4.70;2.17;;;23.60;55.70;;;;;;5050598;28;20029;-55
2021/07/29 07:24:54;;;;;;;4.95;1.80;;;23.70;55.50;;;;;;5048767;28;20051;-56
2021/07/29 07:27:20;;;;;;;4.97;1.75;;;23.60;55.30;;;;;;5049917;28;20028;-54
2021/07/29 07:29:45;;;;;;;2.17;1.50;;;23.60;55.20;;;;;;5049703;28;20061;-62
2021/07/29 07:32:11;;;;;;;4.05;1.83;;;23.60;55.20;;;;;;5050761;28;20073;-55
2021/07/29 07:34:37;;;;;;;4.28;2.25;;;23.80;55.00;;;;;;5050649;28;20025;-56
2021/07/29 07:37:03;;;;;;;3.13;2.00;;;23.80;54.30;;;;;;5049660;28;20021;-56
2021/07/29 07:39:28;;;;;;;3.00;2.10;;;23.70;54.20;;;;;;5050225;28;20112;-55
2021/07/29 07:41:57;;;;;;;4.30;2.15;;;23.60;54.70;;;;;;5049555;28;20083;-58
2021/07/29 07:44:23;;;;;;;3.78;2.33;;;23.50;54.30;;;;;;5051496;28;20029;-56
2021/07/29 07:46:48;;;;;;;4.07;2.30;;;23.60;53.90;;;;;;5050494;28;20078;-55
2021/07/29 07:49:14;;;;;;;6.90;1.98;;;23.50;53.90;;;;;;5052484;28;20029;-51
2021/07/29 07:51:41;;;;;;;5.05;2.00;;;23.60;53.50;;;;;;5057637;28;20048;-55
2021/07/29 07:54:07;;;;;;;3.22;2.10;;;23.70;53.40;;;;;;5050003;28;20029;-50
2021/07/29 07:56:33;;;;;;;2.28;1.60;;;23.60;52.90;;;;;;5049548;28;20486;-56
2021/07/29 07:58:59;;;;;;;3.83;2.30;;;23.70;52.60;;;;;;5049937;28;20033;-52
2021/07/29 08:01:24;;;;;;;3.28;2.03;;;23.70;52.70;;;;;;5050626;28;20044;-55
2021/07/29 08:03:50;;;;;;;3.63;2.42;;;23.70;52.90;;;;;;5050146;28;20447;-55
2021/07/29 08:06:16;;;;;;;3.47;1.95;;;23.60;53.00;;;;;;5051048;28;20074;-55
2021/07/29 08:08:42;;;;;;;7.00;2.35;;;23.60;53.00;;;;;;5050716;28;20041;-58
2021/07/29 08:11:09;;;;;;;3.35;2.40;;;23.70;52.50;;;;;;5050865;28;20021;-57
2021/07/29 08:13:34;;;;;;;3.03;2.35;;;23.70;52.80;;;;;;5071429;28;20040;-57
2021/07/29 08:16:00;;;;;;;4.18;2.22;;;23.70;53.00;;;;;;5069998;28;20025;-58
2021/07/29 08:18:27;;;;;;;4.43;2.47;;;23.80;53.10;;;;;;5050866;28;20051;-57
2021/07/29 08:20:53;;;;;;;6.03;2.08;;;23.90;52.70;;;;;;5053538;28;20029;-57
2021/07/29 08:23:19;;;;;;;3.70;1.73;;;23.90;52.70;;;;;;5050247;28;20116;-57
2021/07/29 08:25:44;;;;;;;2.92;2.30;;;23.90;52.80;;;;;;5050525;28;20029;-58
2021/07/29 08:28:11;;;;;;;6.30;2.63;;;23.90;52.60;;;;;;5050866;28;20041;-56
2021/07/29 08:30:36;;;;;;;4.03;2.40;;;23.90;52.60;;;;;;5052045;28;20032;-58
2021/07/29 08:33:11;;;;;;;4.88;2.53;;;24.00;52.70;;;;;;5050169;28;20485;-56
2021/07/29 08:35:37;;;;;;;3.65;2.25;;;24.00;52.30;;;;;;5050503;28;20514;-56
2021/07/29 08:38:04;;;;;;;4.93;2.42;;;24.00;52.40;;;;;;5052779;28;20132;-56
2021/07/29 08:40:30;;;;;;;2.47;2.00;;;24.00;52.40;;;;;;5054688;28;20037;-55
2021/07/29 08:42:57;;;;;;;4.38;2.33;;;24.10;52.20;;;;;;5053904;28;20086;-56
2021/07/29 08:45:23;;;;;;;3.70;2.13;;;24.10;52.10;;;;;;5054080;28;20048;-57
2021/07/29 08:47:55;;;;;;;4.35;2.70;;;24.10;52.40;;;;;;5053190;28;20072;-58
2021/07/29 08:50:21;;;;;;;;;;;24.10;51.90;;;;;;5065912;28;20044;-57
2021/07/29 08:52:48;;;;;;;5.13;2.40;;;24.10;52.00;;;;;;5073910;28;19959;-61
2021/07/29 08:55:14;;;;;;;3.40;2.08;;;24.20;51.80;;;;;;5067015;28;20016;-53
2021/07/29 08:57:41;;;;;;;4.22;2.10;;;24.30;51.80;;;;;;5053359;28;20029;-54
2021/07/29 09:00:11;;;;;;;3.10;2.10;;;24.30;51.90;;;;;;5052737;28;20517;-55
2021/07/29 09:02:36;;;;;;;4.97;2.38;;;24.30;51.80;;;;;;5052870;28;20044;-54
2021/07/29 09:05:16;;;;;;;3.50;2.15;;;24.40;51.80;;;;;;5053273;28;20433;-58
2021/07/29 09:07:43;;;;;;;2.60;1.83;;;24.40;51.80;;;;;;5052665;28;20029;-55
2021/07/29 09:10:22;;;;;;;2.67;2.13;;;24.40;51.80;;;;;;5053102;28;20091;-54
2021/07/29 09:13:17;;;;;;;4.78;2.42;;;24.40;51.80;;;;;;5053372;28;20043;-62
2021/07/29 09:15:44;;;;;;;3.55;2.33;;;24.50;51.70;;;;;;5053674;28;20024;-53
2021/07/29 09:18:14;;;;;;;3.25;2.42;;;24.50;51.90;;;;;;5053174;28;20025;-55
2021/07/29 09:20:40;;;;;;;5.45;2.65;;;24.50;52.00;;;;;;5067054;28;20029;-54
2021/07/29 09:23:19;;;;;;;3.17;2.30;;;24.50;51.70;;;;;;5066445;28;20497;-53
2021/07/29 09:25:57;;;;;;;4.25;2.08;;;24.60;51.90;;;;;;5053433;28;20029;-60
2021/07/29 09:28:39;;;;;;;4.25;2.60;;;24.60;52.20;;;;;;5053479;28;20109;-55
2021/07/29 09:31:21;;;;;;;3.90;2.45;;;24.60;52.30;;;;;;5053039;28;20041;-54
2021/07/29 09:34:02;;;;;;;;;;;24.60;52.20;;;;;;5052239;28;20037;-62
2021/07/29 09:36:32;;;;;;;4.57;2.67;;;24.60;52.40;;;;;;5052975;28;19912;-53
2021/07/29 09:39:18;;;;;;;3.10;2.13;;;24.60;52.00;;;;;;5052682;28;20021;-52
2021/07/29 09:41:44;;;;;;;3.38;2.40;;;24.60;52.00;;;;;;5052338;28;20178;-56
2021/07/29 09:44:12;;;;;;;4.00;2.55;;;24.60;51.90;;;;;;5052099;28;20115;-54
2021/07/29 09:46:38;;;;;;;3.20;2.40;;;24.60;51.90;;;;;;5052941;28;20037;-55
2021/07/29 09:49:04;;;;;;;3.50;2.35;;;24.60;51.80;;;;;;5051986;28;20032;-55
2021/07/29 09:51:30;;;;;;;4.43;2.78;;;24.60;51.50;;;;;;5052675;28;20040;-55
2021/07/29 09:53:57;;;;;;;3.42;2.20;;;24.50;51.10;;;;;;5051928;28;20036;-54
2021/07/29 09:56:22;;;;;;;2.95;2.30;;;24.50;50.90;;;;;;5051372;28;20028;-52
2021/07/29 09:58:48;;;;;;;4.05;2.67;;;24.50;51.10;;;;;;5051858;28;20029;-60
2021/07/29 10:01:16;;;;;;;3.08;2.28;;;24.50;50.90;;;;;;5052163;28;20043;-58
2021/07/29 10:03:50;;;;;;;3.17;2.42;;;24.50;50.70;;;;;;5052790;28;20033;-51
2021/07/29 10:06:18;;;;;;;3.08;2.25;;;24.50;50.80;;;;;;5052381;28;20021;-54
2021/07/29 10:08:59;;;;;;;3.35;2.60;;;24.60;50.90;;;;;;5052679;28;20049;-56
2021/07/29 10:11:28;;;;;;;3.15;2.45;;;24.60;50.80;;;;;;5052571;28;20105;-54
2021/07/29 10:13:54;;;;;;;3.42;2.38;;;24.60;51.00;;;;;;5051957;28;20036;-52
2021/07/29 10:16:48;;;;;;;3.00;2.22;;;24.60;51.20;;;;;;5054904;28;20459;-55
2021/07/29 10:19:15;;;;;;;6.43;2.78;;;24.70;51.30;;;;;;5054146;28;20029;-55
2021/07/29 10:21:43;;;;;;;4.18;2.80;;;24.70;51.60;;;;;;5067952;28;20112;-58
2021/07/29 10:24:09;;;;;;;3.20;2.38;;;24.70;51.60;;;;;;5052134;28;20029;-55
2021/07/29 10:27:01;;;;;;;2.63;1.90;;;24.70;51.50;;;;;;5052029;28;20060;-53
2021/07/29 10:29:30;;;;;;;4.63;2.42;;;24.70;51.40;;;;;;5051840;28;20059;-56
2021/07/29 10:32:02;;;;;;;2.78;2.13;;;24.70;51.30;;;;;;5051310;28;20037;-56
2021/07/29 10:34:30;;;;;;;3.00;2.20;;;24.70;51.20;;;;;;5052371;28;20043;-55
2021/07/29 10:37:00;;;;;;;3.83;2.53;;;24.70;50.90;;;;;;5049678;28;20061;-53
2021/07/29 10:39:26;;;;;;;3.53;2.38;;;24.70;50.70;;;;;;5052499;28;20021;-57
2021/07/29 10:41:57;;;;;;;3.63;2.90;;;24.70;51.00;;;;;;5050872;28;20085;-59
2021/07/29 10:44:31;;;;;;;3.38;2.50;;;24.70;50.80;;;;;;5052691;28;20059;-55
2021/07/29 10:46:57;;;;;;;5.50;2.72;;;24.70;51.10;;;;;;5052235;28;20037;-55
2021/07/29 10:49:43;;;;;;;3.85;3.15;;;24.70;50.70;;;;;;5054701;28;20024;-55
2021/07/29 10:52:09;;;;;;;2.80;2.13;;;24.80;51.00;;;;;;5069619;28;20032;-56
2021/07/29 10:54:39;;;;;;;5.47;2.83;;;24.80;50.50;;;;;;5051541;28;20033;-60
2021/07/29 10:57:07;;;;;;;4.40;2.70;;;24.80;50.80;;;;;;5050455;28;20032;-56
2021/07/29 10:59:34;;;;;;;3.70;2.55;;;24.80;51.10;;;;;;5050157;28;20045;-55
2021/07/29 11:02:01;;;;;;;3.40;2.83;;;24.80;50.90;;;;;;5050716;28;20048;-53
2021/07/29 11:04:29;;;;;;;4.03;2.70;;;24.80;51.00;;;;;;5051118;28;20773;-56
2021/07/29 11:07:01;;;;;;;3.30;2.33;;;24.80;51.10;;;;;;5051896;28;20496;-56
2021/07/29 11:09:31;;;;;;;4.28;2.60;;;24.80;50.80;;;;;;5051880;28;20033;-55
2021/07/29 11:11:57;;;;;;;4.22;2.97;;;24.80;50.60;;;;;;5050356;28;20503;-55
2021/07/29 11:14:31;;;;;;;3.63;2.53;;;24.80;50.90;;;;;;5051626;28;20106;-57
2021/07/29 11:16:59;;;;;;;4.30;2.75;;;24.80;51.00;;;;;;5052289;28;20103;-57
2021/07/29 11:19:25;;;;;;;3.38;2.67;;;24.80;50.80;;;;;;5054866;28;20027;-55
2021/07/29 11:22:05;;;;;;;2.80;2.40;;;24.80;50.60;;;;;;5058329;28;20037;-61
2021/07/29 11:24:31;;;;;;;3.25;2.67;;;24.80;50.50;;;;;;5051084;28;20033;-56
2021/07/29 11:26:58;;;;;;;3.60;2.60;;;24.80;50.60;;;;;;5050700;28;20032;-59
2021/07/29 11:29:24;;;;;;;3.58;2.47;;;24.80;50.60;;;;;;5051155;28;20029;-57
2021/07/29 11:31:54;;;;;;;4.15;2.55;;;24.80;50.30;;;;;;5051255;28;20037;-61
2021/07/29 11:34:28;;;;;;;5.82;2.97;;;24.80;50.30;;;;;;5051170;28;20029;-53
2021/07/29 11:36:54;;;;;;;3.88;2.50;;;24.80;50.60;;;;;;5049658;28;20124;-54
2021/07/29 11:39:20;;;;;;;3.00;2.58;;;24.90;50.00;;;;;;5051658;28;20493;-56
2021/07/29 11:41:56;;;;;;;3.70;2.60;;;24.90;50.00;;;;;;5051083;28;20037;-55
2021/07/29 11:44:23;;;;;;;3.80;2.72;;;24.90;50.20;;;;;;5047127;28;20037;-55
2021/07/29 11:46:58;;;;;;;2.90;2.50;;;24.90;50.20;;;;;;5051219;28;20484;-61
2021/07/29 11:49:24;;;;;;;4.65;3.08;;;24.90;49.70;;;;;;5053747;28;20029;-57
2021/07/29 11:52:06;;;;;;;4.18;2.47;;;24.90;50.30;;;;;;5053372;28;20048;-62
2021/07/29 11:54:32;;;;;;;3.85;2.58;;;24.80;50.20;;;;;;5051732;28;20063;-57
2021/07/29 11:57:01;;;;;;;3.83;2.70;;;24.90;49.70;;;;;;5050467;28;20136;-57
2021/07/29 11:59:46;;;;;;;4.47;2.90;;;24.90;49.70;;;;;;5049989;28;20476;-54
2021/07/29 12:02:19;;;;;;;3.38;2.35;;;24.90;49.70;;;;;;5049509;28;20116;-54
2021/07/29 12:04:45;;;;;;;3.17;2.35;;;24.90;50.30;;;;;;5050737;28;20838;-54
2021/07/29 12:07:13;;;;;;;4.15;2.90;;;24.90;50.00;;;;;;5050618;28;20032;-54
2021/07/29 12:09:44;;;;;;;3.10;2.47;;;24.90;49.90;;;;;;5050977;28;20039;-56
2021/07/29 12:12:15;;;;;;;3.20;2.67;;;24.90;49.70;;;;;;5053310;28;20662;-58
2021/07/29 12:14:45;;;;;;;6.13;2.80;;;24.90;50.30;;;;;;5054385;28;20033;-55
2021/07/29 12:17:23;;;;;;;6.95;2.85;;;24.90;50.00;;;;;;5053644;28;20602;-54
2021/07/29 12:20:04;;;;;;;3.22;2.88;;;24.90;50.10;;;;;;5061330;28;20401;-54
2021/07/29 12:22:31;;;;;;;4.25;2.90;;;24.80;49.90;;;;;;5054388;28;20033;-54
2021/07/29 12:25:00;;;;;;;3.80;2.67;;;24.80;49.70;;;;;;5054323;28;20044;-56
2021/07/29 12:27:26;;;;;;;3.13;2.63;;;24.80;49.40;;;;;;5054948;28;20025;-55
2021/07/29 12:29:51;;;;;;;4.28;2.80;;;24.80;49.50;;;;;;5054010;28;20033;-62
2021/07/29 12:32:24;;;;;;;3.92;2.90;;;24.90;49.60;;;;;;5054351;28;20037;-56
2021/07/29 12:34:52;;;;;;;3.35;2.85;;;24.90;49.70;;;;;;5054371;28;20075;-61
2021/07/29 12:37:29;;;;;;;3.40;3.10;;;24.80;49.40;;;;;;5054293;28;20029;-56
2021/07/29 12:39:55;;;;;;;4.68;2.80;;;25.00;49.60;;;;;;5053759;28;20068;-60
2021/07/29 12:42:31;;;;;;;5.47;2.85;;;25.00;49.30;;;;;;5053767;28;20033;-55
2021/07/29 12:45:04;;;;;;;3.45;2.35;;;25.00;49.50;;;;;;5053256;28;20032;-55
2021/07/29 12:47:29;;;;;;;3.95;2.78;;;25.00;49.60;;;;;;5053459;28;20058;-55
2021/07/29 12:49:55;;;;;;;4.18;2.50;;;25.00;49.70;;;;;;5061473;28;20107;-56
2021/07/29 12:52:22;;;;;;;5.47;2.60;;;25.00;49.80;;;;;;5054739;28;20040;-55